This is the latest recevied weather packets stored in our database for station/object EPGD. If no packets are shown the sender has not sent any weather packets the latest 10 day(s).
| Time | Temp. | Humidity | Pressure | Rain* | Wind** | Luminosity | Snow |
|---|---|---|---|---|---|---|---|
| 1777752303 | 11.67° C | 46% | 1016 hPa | - | - | - | - |
| 1777750503 | 12.78° C | 40% | 1017 hPa | - | - | - | - |
| 1777748704 | 12.78° C | 43% | 1017 hPa | - | - | - | - |
| 1777746903 | 13.89° C | 38% | 1017 hPa | - | - | - | - |
| 1777745104 | 15.56° C | 33% | 1017 hPa | - | - | - | - |
| 1777743303 | 16.67° C | 33% | 1017 hPa | - | - | - | - |
| 1777741504 | 16.67° C | 33% | 1017 hPa | - | - | - | - |
| 1777739703 | 17.78° C | 31% | 1017 hPa | - | - | - | - |
| 1777737904 | 17.78° C | 31% | 1018 hPa | - | - | - | - |
| 1777736103 | 18.89° C | 29% | 1018 hPa | - | - | - | - |
| 1777734304 | 20° C | 28% | 1018 hPa | - | - | - | - |
| 1777732503 | 21.67° C | 28% | 1018 hPa | - | - | - | - |
| 1777730704 | 25° C | 17% | 1019 hPa | - | - | - | - |
| 1777728904 | 25° C | 16% | 1019 hPa | - | - | - | - |
| 1777727104 | 25° C | 19% | 1019 hPa | - | - | - | - |
| 1777725303 | 25° C | 19% | 1020 hPa | - | - | - | - |
| 1777723504 | 25° C | 19% | 1020 hPa | - | - | - | - |
| 1777721703 | 23.89° C | 20% | 1021 hPa | - | - | - | - |
| 1777719904 | 23.89° C | 22% | 1021 hPa | - | - | - | - |
| 1777718104 | 23.89° C | 22% | 1022 hPa | - | - | - | - |
| 1777716304 | 22.78° C | 25% | 1022 hPa | - | - | - | - |
| 1777714504 | 21.67° C | 26% | 1022 hPa | - | - | - | - |
| 1777712704 | 20.56° C | 26% | 1023 hPa | - | - | - | - |
| 1777710904 | 20° C | 28% | 1023 hPa | - | - | - | - |
| 1777709104 | 18.89° C | 32% | 1023 hPa | - | - | - | - |
* Rain since midnight (hover to see other rain measurements)
** Current wind speed in m/s (hover to see current wind gust speed)